Rikki S — WDD3773 — position and weather

sailwx.info

Track history (hours):
 
Tides and Currents Weather Stations Pressure Air Temp Water Temp Dewpoint Dewpoint Depression Visibility Wind Speed Wind Dir Waves Ship Positions

Rikki S

Owner: P & L Towing $ Transportation, Inc., Southwest Ranches, FL. More information available from US FCC via Universal Licensing System and Coast Guard Vessel Documentation Center.

Last reported at 2018-Jun-25 19:30 UTC. Time now 2018-Jun-25 19:46 UTC.
Position N 39°41' W 074°06'.

Length 26 m; draft 3 m.

Type: Towing. MMSI: 367136020.

Date/timePositionNaut miles runAvg speedWind from/ knotsBaromVisibWave heightAir tempDewpointWater temp
2018-Jun-25 19:30N 39°41' W 074°06'0 0.1
2018-Jun-25 19:00N 39°41' W 074°06'0 0.5
2018-Jun-25 18:29N 39°41' W 074°06'0 0.1
2018-Jun-25 18:00N 39°41' W 074°06'0 0.4
2018-Jun-25 17:29N 39°41' W 074°06'0 0.1
2018-Jun-25 17:00N 39°41' W 074°06'0 0.8
2018-Jun-25 16:29N 39°41' W 074°05'0 0.2
2018-Jun-25 15:58N 39°41' W 074°06'0 0.4
2018-Jun-25 15:27N 39°41' W 074°06'2 3.5
2018-Jun-25 15:00N 39°40' W 074°04'1 2.1
2018-Jun-25 14:29N 39°41' W 074°05'1 1.6
2018-Jun-25 13:59N 39°41' W 074°04'0 0.0
2018-Jun-25 13:30N 39°41' W 074°04'0 0.0
2018-Jun-25 12:57N 39°41' W 074°04'1 1.3
2018-Jun-25 12:29N 39°41' W 074°04'3 6.0
2018-Jun-25 12:00N 39°44' W 074°04'3 4.5
2018-Jun-25 11:24N 39°46' W 074°06'1 1.4
2018-Jun-25 10:58N 39°46' W 074°07'0 0.0
2018-Jun-25 10:22N 39°46' W 074°07'0 0.0
2018-Jun-25 10:00N 39°46' W 074°07'1 1.6
2018-Jun-25 09:28N 39°45' W 074°07'2 3.4
2018-Jun-25 08:58N 39°47' W 074°07'0 0.0
2018-Jun-25 08:30N 39°47' W 074°07'0 0.0
2018-Jun-25 08:00N 39°47' W 074°07'0 0.0
2018-Jun-25 07:30N 39°47' W 074°07'0 0.0
2018-Jun-25 07:00N 39°47' W 074°07'0 0.0
2018-Jun-25 06:25N 39°47' W 074°07'0 0.0
2018-Jun-25 05:56N 39°47' W 074°07'0 0.0
2018-Jun-25 05:25N 39°47' W 074°07'0 0.0
2018-Jun-25 04:57N 39°47' W 074°07'0 0.0
2018-Jun-25 04:29N 39°47' W 074°07'0 0.0
2018-Jun-25 03:59N 39°47' W 074°07'0 0.0
2018-Jun-25 03:30N 39°47' W 074°07'0 0.0
2018-Jun-25 02:56N 39°47' W 074°07'0 0.0
2018-Jun-25 02:27N 39°47' W 074°07'0 0.0
2018-Jun-25 01:53N 39°47' W 074°07'0 0.0
2018-Jun-25 01:16N 39°47' W 074°07'0 0.0
2018-Jun-25 00:43N 39°47' W 074°07'0 0.0
2018-Jun-25 00:25N 39°47' W 074°07'0 0.0
2018-Jun-24 23:59N 39°47' W 074°07'0 0.0
2018-Jun-24 23:26N 39°47' W 074°07'0 0.0
2018-Jun-24 22:59N 39°47' W 074°07'0 0.0
2018-Jun-24 22:30N 39°47' W 074°07'2 2.6
2018-Jun-24 21:52N 39°45' W 074°07'0 0.0
2018-Jun-24 21:29N 39°45' W 074°07'0 0.0
2018-Jun-24 20:52N 39°45' W 074°07'0 0.0
2018-Jun-24 20:28N 39°45' W 074°07'0 0.5
2018-Jun-24 19:59N 39°45' W 074°07'1 2.7
2018-Jun-24 19:28N 39°47' W 074°07'0 0.0
2018-Jun-24 19:00N 39°47' W 074°07'0 0.0
2018-Jun-24 18:26N 39°47' W 074°07'0 0.1
2018-Jun-24 17:55N 39°47' W 074°07'0 0.1
2018-Jun-24 17:30N 39°47' W 074°07'0 0.0
2018-Jun-24 16:59N 39°47' W 074°07'1 1.7
2018-Jun-24 16:30N 39°46' W 074°07'1 1.5
2018-Jun-24 15:58N 39°47' W 074°07'0 0.0
2018-Jun-24 15:29N 39°47' W 074°07'0 0.0
2018-Jun-24 15:00N 39°47' W 074°07'0 0.0
2018-Jun-24 14:26N 39°47' W 074°07'0 0.0
2018-Jun-24 13:58N 39°47' W 074°07'0 0.0
2018-Jun-24 13:30N 39°47' W 074°07'0 0.0
2018-Jun-24 12:58N 39°47' W 074°07'0 0.0
2018-Jun-24 12:30N 39°47' W 074°07'0 0.0
2018-Jun-24 11:59N 39°47' W 074°07'0 0.0
2018-Jun-24 11:29N 39°47' W 074°07'0 0.0
2018-Jun-24 11:00N 39°47' W 074°07'0 0.0
2018-Jun-24 10:29N 39°47' W 074°07'0 0.0
2018-Jun-24 09:59N 39°47' W 074°07'0 0.0
2018-Jun-24 09:30N 39°47' W 074°07'0 0.0
2018-Jun-24 08:58N 39°47' W 074°07'0 0.0
2018-Jun-24 08:29N 39°47' W 074°07'0 0.0
2018-Jun-24 07:57N 39°47' W 074°07'0 0.0
2018-Jun-24 07:28N 39°47' W 074°07'0 0.0
2018-Jun-24 06:59N 39°47' W 074°07'0 0.0
2018-Jun-24 06:28N 39°47' W 074°07'0 0.0
2018-Jun-24 05:57N 39°47' W 074°07'0 0.0
2018-Jun-24 05:29N 39°47' W 074°07'0 0.0
2018-Jun-24 04:55N 39°47' W 074°07'0 0.0
2018-Jun-24 04:28N 39°47' W 074°07'0 0.0
2018-Jun-24 03:56N 39°47' W 074°07'0 0.0
2018-Jun-24 03:23N 39°47' W 074°07'0 0.0
2018-Jun-24 02:59N 39°47' W 074°07'0 0.0
2018-Jun-24 02:29N 39°47' W 074°07'0 0.0
2018-Jun-24 01:37N 39°47' W 074°07'0 0.0
2018-Jun-24 01:11N 39°47' W 074°07'0 0.0
2018-Jun-24 00:59N 39°47' W 074°07'0 0.0
2018-Jun-24 00:25N 39°47' W 074°07'0 0.0
2018-Jun-23 23:59N 39°47' W 074°07'0 0.0
2018-Jun-23 23:24N 39°47' W 074°07'0 0.0
2018-Jun-23 22:58N 39°47' W 074°07'0 0.0
2018-Jun-23 22:27N 39°47' W 074°07'0 0.0
2018-Jun-23 21:59N 39°47' W 074°07'0 0.0
2018-Jun-23 21:30N 39°47' W 074°07'0 0.8
2018-Jun-23 20:58N 39°46' W 074°07'1 1.2
2018-Jun-23 20:28N 39°46' W 074°07'1 2.3
2018-Jun-23 20:00N 39°47' W 074°07'0 0.0
2018-Jun-23 19:29N 39°47' W 074°07'0 0.0
2018-Jun-23 18:57N 39°47' W 074°07'0 0.0
2018-Jun-23 18:29N 39°47' W 074°07'0 0.0
2018-Jun-23 17:58N 39°47' W 074°07'0 0.0
2018-Jun-23 17:29N 39°47' W 074°07'0 0.0
2018-Jun-23 17:00N 39°47' W 074°07'1 1.5
2018-Jun-23 16:30N 39°46' W 074°07'0 0.8
2018-Jun-23 15:59N 39°46' W 074°07'0 0.0
2018-Jun-23 15:26N 39°46' W 074°07'1 1.4
2018-Jun-23 14:59N 39°46' W 074°07'1 1.2
2018-Jun-23 14:30N 39°47' W 074°07'0 0.0
2018-Jun-23 14:00N 39°47' W 074°07'0 0.0
2018-Jun-23 13:30N 39°47' W 074°07'0 0.0
2018-Jun-23 13:00N 39°47' W 074°07'0 0.0
2018-Jun-23 12:30N 39°47' W 074°07'0 0.1
2018-Jun-23 11:59N 39°47' W 074°07'1 2.5
2018-Jun-23 11:29N 39°46' W 074°07'0 0.8
2018-Jun-23 10:55N 39°45' W 074°07'0 0.0
2018-Jun-23 10:29N 39°45' W 074°07'0 0.0
2018-Jun-23 09:59N 39°45' W 074°07'2 3.1
2018-Jun-23 09:30N 39°47' W 074°07'0 0.3
2018-Jun-23 08:59N 39°47' W 074°07'0 0.0
2018-Jun-23 08:30N 39°47' W 074°07'0 0.0
2018-Jun-23 07:48N 39°47' W 074°07'0 0.0
2018-Jun-23 07:30N 39°47' W 074°07'0 0.0
2018-Jun-23 06:58N 39°47' W 074°07'0 0.0
2018-Jun-23 06:18N 39°47' W 074°07'0 0.0
2018-Jun-23 05:58N 39°47' W 074°07'0 0.0
2018-Jun-23 05:29N 39°47' W 074°07'0 0.0
2018-Jun-23 04:53N 39°47' W 074°07'0 0.0
2018-Jun-23 04:20N 39°47' W 074°07'0 0.0
2018-Jun-23 03:55N 39°47' W 074°07'0 0.0
2018-Jun-23 03:27N 39°47' W 074°07'0 0.0
2018-Jun-23 03:00N 39°47' W 074°07'0 0.0
2018-Jun-23 02:22N 39°47' W 074°07'0 0.0
2018-Jun-23 02:00N 39°47' W 074°07'0 0.0
2018-Jun-23 01:17N 39°47' W 074°07'0 0.0
2018-Jun-23 00:47N 39°47' W 074°07'0 0.0
2018-Jun-23 00:28N 39°47' W 074°07'0 0.0
2018-Jun-22 23:57N 39°47' W 074°07'0 0.0
2018-Jun-22 23:22N 39°47' W 074°07'0 0.0
2018-Jun-22 22:55N 39°47' W 074°07'0 0.0
2018-Jun-22 22:29N 39°47' W 074°07'0 0.0
2018-Jun-22 21:58N 39°47' W 074°07'0 0.0
2018-Jun-22 21:30N 39°47' W 074°07'1 1.8
2018-Jun-22 21:00N 39°46' W 074°07'1 1.5
2018-Jun-22 20:28N 39°45' W 074°07'0 0.0
2018-Jun-22 20:00N 39°45' W 074°07'0 0.0
2018-Jun-22 19:30N 39°45' W 074°07'0 0.0
2018-Jun-22 18:54N 39°45' W 074°07'0 0.0
2018-Jun-22 18:30N 39°45' W 074°07'0 0.0
2018-Jun-22 18:00N 39°45' W 074°07'0 0.0
2018-Jun-22 17:30N 39°45' W 074°07'0 0.0
2018-Jun-22 16:59N 39°45' W 074°07'0 0.1
2018-Jun-22 16:30N 39°45' W 074°07'0 0.1
2018-Jun-22 15:56N 39°45' W 074°07'0 0.1
2018-Jun-22 15:30N 39°45' W 074°07'0 0.1
2018-Jun-22 14:59N 39°45' W 074°07'0 0.0
2018-Jun-22 14:30N 39°45' W 074°07'0 0.0
2018-Jun-22 13:59N 39°45' W 074°07'0 0.0
2018-Jun-22 13:28N 39°45' W 074°07'0 0.0
2018-Jun-22 12:57N 39°45' W 074°07'0 0.0
2018-Jun-22 12:26N 39°45' W 074°07'0 0.0
2018-Jun-22 11:59N 39°45' W 074°07'0 0.0
2018-Jun-22 11:29N 39°45' W 074°07'0 0.0
2018-Jun-22 11:00N 39°45' W 074°07'0 0.0
2018-Jun-22 10:30N 39°45' W 074°07'0 0.0
2018-Jun-22 10:00N 39°45' W 074°07'0 0.0
2018-Jun-22 09:30N 39°45' W 074°07'0 0.0
2018-Jun-22 08:59N 39°45' W 074°07'0 0.0
2018-Jun-22 08:30N 39°45' W 074°07'0 0.0
2018-Jun-22 08:00N 39°45' W 074°07'0 0.0
2018-Jun-22 07:29N 39°45' W 074°07'0 0.0
2018-Jun-22 07:00N 39°45' W 074°07'0 0.0
2018-Jun-22 06:28N 39°45' W 074°07'0 0.0
2018-Jun-22 06:00N 39°45' W 074°07'0 0.0
2018-Jun-22 05:29N 39°45' W 074°07'0 0.0
2018-Jun-22 05:00N 39°45' W 074°07'0 0.0
2018-Jun-22 04:30N 39°45' W 074°07'0 0.0
2018-Jun-22 04:00N 39°45' W 074°07'0 0.0
2018-Jun-22 03:29N 39°45' W 074°07'2 3.5
2018-Jun-22 03:00N 39°47' W 074°07'0 0.0
2018-Jun-22 02:28N 39°47' W 074°07'0 0.0
2018-Jun-22 01:59N 39°47' W 074°07'0 0.0
2018-Jun-22 01:28N 39°47' W 074°07'0 0.0
2018-Jun-22 00:59N 39°47' W 074°07'0 0.0
2018-Jun-22 00:30N 39°47' W 074°07'1 1.6
2018-Jun-22 00:00N 39°46' W 074°07'1 1.9
2018-Jun-21 23:30N 39°45' W 074°07'0 0.0
2018-Jun-21 23:00N 39°45' W 074°07'0 0.0
2018-Jun-21 22:30N 39°45' W 074°07'0 0.0
2018-Jun-21 22:00N 39°45' W 074°07'0 0.0
2018-Jun-21 21:30N 39°45' W 074°07'0 0.0
2018-Jun-21 20:55N 39°45' W 074°07'0 0.0
2018-Jun-21 20:30N 39°45' W 074°07'0 0.0
2018-Jun-21 19:57N 39°45' W 074°07'0 0.0
2018-Jun-21 19:29N 39°45' W 074°07'0 0.0
2018-Jun-21 18:57N 39°45' W 074°07'0 0.0
2018-Jun-21 18:29N 39°45' W 074°07'0 0.0
2018-Jun-21 18:00N 39°45' W 074°07'0 0.0
2018-Jun-21 17:30N 39°45' W 074°07'0 0.0
2018-Jun-21 16:47N 39°45' W 074°07'1 3.1
2018-Jun-21 16:26N 39°46' W 074°06'2 3.9
2018-Jun-21 16:00N 39°44' W 074°05'2 4.0
2018-Jun-21 15:30N 39°42' W 074°05'2 3.7
2018-Jun-21 15:00N 39°41' W 074°04'0 0.1
2018-Jun-21 14:29N 39°41' W 074°04'0 0.9
2018-Jun-21 13:58N 39°40' W 074°03'2 4.2
2018-Jun-21 13:30N 39°42' W 074°05'1 2.0
2018-Jun-21 13:00N 39°41' W 074°06'0 0.5
2018-Jun-21 12:28N 39°41' W 074°06'0 0.3
2018-Jun-21 12:00N 39°41' W 074°06'0 0.8
2018-Jun-21 11:30N 39°41' W 074°05'1 1.8
2018-Jun-21 10:58N 39°41' W 074°04'0 0.6
2018-Jun-21 10:30N 39°41' W 074°04'0 0.7
2018-Jun-21 09:59N 39°41' W 074°03'0 0.0
2018-Jun-21 09:29N 39°41' W 074°03'0 0.0
2018-Jun-21 09:00N 39°41' W 074°03'0 0.0
2018-Jun-21 08:24N 39°41' W 074°03'0 0.0
2018-Jun-21 07:59N 39°41' W 074°03'0 0.0
2018-Jun-21 07:30N 39°41' W 074°03'0 0.0
2018-Jun-21 07:00N 39°41' W 074°03'0 0.0
2018-Jun-21 06:26N 39°41' W 074°03'0 0.1
2018-Jun-21 05:59N 39°41' W 074°03'0 0.0
2018-Jun-21 05:28N 39°41' W 074°03'0 0.0
2018-Jun-21 04:59N 39°41' W 074°03'0 0.0
2018-Jun-21 04:26N 39°41' W 074°03'0 1.0
2018-Jun-21 03:58N 39°41' W 074°03'3 7.2
2018-Jun-21 03:30N 39°44' W 074°04'2 4.8
2018-Jun-21 03:00N 39°46' W 074°07'0 0.8
2018-Jun-21 02:28N 39°45' W 074°07'0 0.0
2018-Jun-21 01:59N 39°45' W 074°07'0 0.0
2018-Jun-21 01:23N 39°45' W 074°07'0 0.0
2018-Jun-21 00:56N 39°45' W 074°07'0 0.0
2018-Jun-21 00:28N 39°45' W 074°07'0 0.0
2018-Jun-20 23:59N 39°45' W 074°07'0 0.0
2018-Jun-20 23:29N 39°45' W 074°07'1 2.5
2018-Jun-20 22:56N 39°45' W 074°05'4 9.6
2018-Jun-20 22:30N 39°41' W 074°04'0 1.0
2018-Jun-20 22:00N 39°41' W 074°04'0 0.4
2018-Jun-20 21:30N 39°41' W 074°04'0 0.3
2018-Jun-20 20:57N 39°41' W 074°04'0 0.7
2018-Jun-20 20:29N 39°40' W 074°04'1 1.6
2018-Jun-20 20:00N 39°40' W 074°05'1 1.3
2018-Jun-20 19:30N 39°41' W 074°06'0 0.1
2018-Jun-20 18:58N 39°41' W 074°06'0 0.0
2018-Jun-20 18:30N 39°41' W 074°06'0 0.2
2018-Jun-20 18:00N 39°41' W 074°06'0 0.3
2018-Jun-20 17:30N 39°41' W 074°06'0 0.1
2018-Jun-20 16:57N 39°41' W 074°06'0 0.0
2018-Jun-20 16:30N 39°41' W 074°06'0 0.0
2018-Jun-20 15:58N 39°41' W 074°06'0 0.0
2018-Jun-20 15:30N 39°41' W 074°06'0 0.3
2018-Jun-20 14:59N 39°41' W 074°06'0 0.1
2018-Jun-20 14:30N 39°41' W 074°06'0 0.1
2018-Jun-20 14:00N 39°41' W 074°06'0 0.2
2018-Jun-20 13:28N 39°41' W 074°06'0 0.1
2018-Jun-20 12:58N 39°41' W 074°06'0 0.4
2018-Jun-20 12:30N 39°41' W 074°06'2 3.1
2018-Jun-20 12:00N 39°40' W 074°04'1 0.9
2018-Jun-20 11:26N 39°41' W 074°03'0 0.2
2018-Jun-20 10:56N 39°41' W 074°03'0 0.6
2018-Jun-20 10:30N 39°41' W 074°03'0 0.4
2018-Jun-20 09:57N 39°41' W 074°04'0 0.5
2018-Jun-20 09:30N 39°40' W 074°04'0 0.1
2018-Jun-20 08:59N 39°40' W 074°04'0 0.0
2018-Jun-20 08:30N 39°40' W 074°04'0 0.7
2018-Jun-20 07:58N 39°40' W 074°04'0 0.5
2018-Jun-20 07:28N 39°41' W 074°04'0 0.5
2018-Jun-20 07:00N 39°40' W 074°04'0 0.0
2018-Jun-20 06:27N 39°40' W 074°04'0 0.0
2018-Jun-20 05:57N 39°40' W 074°04'0 0.0
2018-Jun-20 05:24N 39°40' W 074°04'0 0.1
2018-Jun-20 04:59N 39°40' W 074°04'0 0.1
2018-Jun-20 04:30N 39°41' W 074°04'0 0.0
2018-Jun-20 04:00N 39°41' W 074°04'0 0.0
2018-Jun-20 03:30N 39°41' W 074°04'0 0.0
2018-Jun-20 02:50N 39°41' W 074°04'0 0.0
2018-Jun-20 02:30N 39°41' W 074°04'0 0.0
2018-Jun-20 02:00N 39°41' W 074°04'0 0.0
2018-Jun-20 01:30N 39°41' W 074°04'0 0.0
2018-Jun-20 00:58N 39°41' W 074°04'0 0.0
2018-Jun-20 00:30N 39°41' W 074°04'0 0.0
2018-Jun-20 00:00N 39°41' W 074°04'0 0.0
2018-Jun-19 23:30N 39°41' W 074°04'0 0.0
2018-Jun-19 23:00N 39°41' W 074°04'0 0.0
2018-Jun-19 22:30N 39°41' W 074°04'0 0.0
2018-Jun-19 21:58N 39°41' W 074°04'0 0.9
2018-Jun-19 21:30N 39°41' W 074°04'2 3.5
2018-Jun-19 20:58N 39°41' W 074°07'2 5.0
2018-Jun-19 20:30N 39°40' W 074°04'0 0.0
2018-Jun-19 20:00N 39°40' W 074°04'0 0.0
2018-Jun-19 19:30N 39°40' W 074°04'0 0.1
2018-Jun-19 19:00N 39°41' W 074°04'1 2.4
2018-Jun-19 18:27N 39°42' W 074°04'4 8.1
2018-Jun-19 18:00N 39°45' W 074°05'2 3.6
2018-Jun-19 17:28N 39°46' W 074°07'0 0.1
2018-Jun-19 17:00N 39°46' W 074°07'0 0.1
2018-Jun-19 16:27N 39°46' W 074°07'0 0.0
2018-Jun-19 15:58N 39°46' W 074°07'0 0.2
2018-Jun-19 15:30N 39°46' W 074°07'0 0.1
2018-Jun-19 14:58N 39°46' W 074°07'1 2.4
2018-Jun-19 14:30N 39°46' W 074°06'2 4.2
2018-Jun-19 13:55N 39°43' W 074°06'2 4.3
2018-Jun-19 13:25N 39°41' W 074°06'2 5.2
2018-Jun-19 12:58N 39°42' W 074°03'3 5.7
2018-Jun-19 12:30N 39°44' W 074°04'3 5.4
2018-Jun-19 11:58N 39°46' W 074°07'1 1.9
2018-Jun-19 11:30N 39°47' W 074°07'0 0.1
2018-Jun-19 11:00N 39°47' W 074°07'2 4.6
2018-Jun-19 10:27N 39°45' W 074°05'4 8.0
2018-Jun-19 10:00N 39°42' W 074°04'1 1.2
2018-Jun-19 09:08N 39°40' W 074°04'0 0.0
2018-Jun-19 08:54N 39°40' W 074°04'0 0.0
2018-Jun-19 08:28N 39°40' W 074°04'0 0.0
2018-Jun-19 07:48N 39°40' W 074°04'0 0.0
2018-Jun-19 07:30N 39°40' W 074°04'0 0.0
2018-Jun-19 06:54N 39°40' W 074°04'0 0.0
2018-Jun-19 06:30N 39°40' W 074°04'0 0.0
2018-Jun-19 06:00N 39°40' W 074°04'0 0.0
2018-Jun-19 05:29N 39°40' W 074°04'0 0.0
2018-Jun-19 04:57N 39°40' W 074°04'0 0.0
2018-Jun-19 04:29N 39°40' W 074°04'0 0.0
2018-Jun-19 03:58N 39°40' W 074°04'0 0.0
2018-Jun-19 03:12N 39°40' W 074°04'0 0.0
2018-Jun-19 02:18N 39°40' W 074°04'0 0.0
2018-Jun-19 01:51N 39°40' W 074°04'0 0.0
2018-Jun-19 01:30N 39°40' W 074°04'0 0.0
2018-Jun-19 00:57N 39°40' W 074°04'0 0.0
2018-Jun-19 00:28N 39°40' W 074°04'0 0.0
2018-Jun-19 00:00N 39°40' W 074°04'0 0.0
2018-Jun-18 23:28N 39°40' W 074°04'0 0.0
2018-Jun-18 22:56N 39°40' W 074°04'0 0.0
2018-Jun-18 22:30N 39°40' W 074°04'0 0.0
2018-Jun-18 22:00N 39°40' W 074°04'0 0.0
2018-Jun-18 21:30N 39°40' W 074°04'0 0.0
2018-Jun-18 20:59N 39°40' W 074°04'0 0.0
2018-Jun-18 20:28N 39°40' W 074°04'0 0.0
2018-Jun-18 19:59N 39°40' W 074°04'0 0.0
2018-Jun-18 19:26N 39°40' W 074°04'0 0.0
2018-Jun-18 19:00N 39°40' W 074°04'0 0.1
2018-Jun-18 18:27N 39°41' W 074°04'1 2.8
2018-Jun-18 17:57N 39°41' W 074°06'1 2.7
2018-Jun-18 17:26N 39°41' W 074°04'0 0.0
2018-Jun-18 16:53N 39°41' W 074°04'0 0.1
2018-Jun-18 16:20N 39°41' W 074°04'0 1.0
2018-Jun-18 15:59N 39°41' W 074°03'0 0.2
2018-Jun-18 15:28N 39°41' W 074°03'2 3.6
2018-Jun-18 14:59N 39°41' W 074°05'1 1.0
2018-Jun-18 14:25N 39°41' W 074°06'0 0.4
2018-Jun-18 13:59N 39°41' W 074°06'0 0.0
2018-Jun-18 13:29N 39°41' W 074°06'0 0.1
2018-Jun-18 13:00N 39°41' W 074°06'1 1.5
2018-Jun-18 12:30N 39°41' W 074°07'0 0.3
2018-Jun-18 11:59N 39°41' W 074°07'3 4.3
2018-Jun-18 11:21N 39°41' W 074°03'0 0.2
2018-Jun-18 11:00N 39°41' W 074°03'0 0.1
2018-Jun-18 10:30N 39°41' W 074°03'0 0.0
2018-Jun-18 09:57N 39°41' W 074°03'0 0.0
2018-Jun-18 09:30N 39°41' W 074°03'0 0.0
2018-Jun-18 08:56N 39°41' W 074°03'0 0.0
2018-Jun-18 08:27N 39°41' W 074°03'0 0.0
2018-Jun-18 07:57N 39°41' W 074°03'0 0.0
2018-Jun-18 07:27N 39°41' W 074°03'0 0.0
2018-Jun-18 07:01N 39°41' W 074°03'0 0.0
2018-Jun-18 06:18N 39°41' W 074°03'0 0.0
2018-Jun-18 06:00N 39°41' W 074°03'0 0.0
2018-Jun-18 05:28N 39°41' W 074°03'0 0.0
2018-Jun-18 04:34N 39°41' W 074°03'0 0.0
2018-Jun-18 04:29N 39°41' W 074°03'0 0.0
2018-Jun-18 03:57N 39°41' W 074°03'0 0.0
2018-Jun-18 03:19N 39°41' W 074°03'0 0.0
2018-Jun-18 02:57N 39°41' W 074°03'0 0.0
2018-Jun-18 02:22N 39°41' W 074°03'0 0.0
2018-Jun-18 01:51N 39°41' W 074°03'0 0.0
2018-Jun-18 01:12N 39°41' W 074°03'0 0.0
2018-Jun-18 01:00N 39°41' W 074°03'0 0.0
2018-Jun-18 00:30N 39°41' W 074°03'0 0.0
2018-Jun-17 23:58N 39°41' W 074°03'0 0.0
2018-Jun-17 23:20N 39°41' W 074°03'0 0.0
2018-Jun-17 22:48N 39°41' W 074°03'0 0.0
2018-Jun-17 22:27N 39°41' W 074°03'0 0.0
2018-Jun-17 22:00N 39°41' W 074°03'1 2.3
2018-Jun-17 21:30N 39°41' W 074°05'1 1.4
2018-Jun-17 20:59N 39°41' W 074°05'0 0.8
2018-Jun-17 20:30N 39°41' W 074°06'0 0.4
2018-Jun-17 19:57N 39°41' W 074°06'0 0.8
2018-Jun-17 19:29N 39°41' W 074°06'0 0.1
2018-Jun-17 19:00N 39°41' W 074°06'0 0.1
2018-Jun-17 18:29N 39°41' W 074°06'0 0.1
2018-Jun-17 17:59N 39°41' W 074°06'0 0.1
2018-Jun-17 17:29N 39°41' W 074°06'1 1.1
2018-Jun-17 17:00N 39°41' W 074°06'0 0.1
2018-Jun-17 16:30N 39°41' W 074°06'0 0.6
2018-Jun-17 16:00N 39°41' W 074°06'0 0.3
2018-Jun-17 15:29N 39°41' W 074°06'0 0.3
2018-Jun-17 15:00N 39°41' W 074°06'0 0.1
2018-Jun-17 14:30N 39°41' W 074°06'0 0.2
2018-Jun-17 14:00N 39°41' W 074°07'0 0.0
2018-Jun-17 13:30N 39°41' W 074°07'0 0.2
2018-Jun-17 13:00N 39°41' W 074°07'0 0.4
2018-Jun-17 12:28N 39°41' W 074°07'0 0.0
2018-Jun-17 11:59N 39°41' W 074°07'0 0.9
2018-Jun-17 11:27N 39°41' W 074°06'2 4.7
2018-Jun-17 10:59N 39°41' W 074°03'0 0.1
2018-Jun-17 10:27N 39°41' W 074°03'0 0.9
2018-Jun-17 09:59N 39°41' W 074°03'2 3.9
2018-Jun-17 09:30N 39°43' W 074°03'4 7.1
2018-Jun-17 08:57N 39°46' W 074°07'1 1.4
2018-Jun-17 08:29N 39°45' W 074°07'0 0.0
2018-Jun-17 07:58N 39°45' W 074°07'0 0.0
2018-Jun-17 07:29N 39°45' W 074°07'0 0.0
2018-Jun-17 06:58N 39°45' W 074°07'0 0.0
2018-Jun-17 06:29N 39°45' W 074°07'0 0.0
2018-Jun-17 05:58N 39°45' W 074°07'0 0.0
2018-Jun-17 05:30N 39°45' W 074°07'0 0.0
2018-Jun-17 05:00N 39°45' W 074°07'0 0.0
2018-Jun-17 04:23N 39°45' W 074°07'0 0.0
2018-Jun-17 03:58N 39°45' W 074°07'0 0.0
2018-Jun-17 03:30N 39°45' W 074°07'0 0.0
2018-Jun-17 03:00N 39°45' W 074°07'0 0.0
2018-Jun-17 02:17N 39°45' W 074°07'0 0.0
2018-Jun-17 01:21N 39°45' W 074°07'0 0.0
2018-Jun-17 00:53N 39°45' W 074°07'0 0.0
2018-Jun-17 00:27N 39°45' W 074°07'0 0.0
2018-Jun-17 00:00N 39°45' W 074°07'1 1.0
2018-Jun-16 23:29N 39°46' W 074°07'3 6.6
2018-Jun-16 23:00N 39°43' W 074°04'3 5.3
2018-Jun-16 22:29N 39°41' W 074°03'2 4.4
2018-Jun-16 22:00N 39°41' W 074°06'1 1.3
2018-Jun-16 21:30N 39°41' W 074°07'0 0.1
2018-Jun-16 21:00N 39°41' W 074°07'0 0.3
2018-Jun-16 20:30N 39°41' W 074°07'0 0.2
2018-Jun-16 20:00N 39°41' W 074°07'1 1.8
2018-Jun-16 19:29N 39°40' W 074°06'0 0.9
2018-Jun-16 18:59N 39°40' W 074°05'1 1.2
2018-Jun-16 18:30N 39°40' W 074°04'0 0.8
2018-Jun-16 18:00N 39°40' W 074°04'0 0.2
2018-Jun-16 17:28N 39°40' W 074°04'1 1.8
2018-Jun-16 16:58N 39°41' W 074°05'1 1.7
2018-Jun-16 16:24N 39°41' W 074°04'0 0.3
2018-Jun-16 15:59N 39°41' W 074°04'4 9.1
2018-Jun-16 15:30N 39°45' W 074°05'1 2.6
2018-Jun-16 14:56N 39°45' W 074°07'0 0.0
2018-Jun-16 14:30N 39°45' W 074°07'0 0.0
2018-Jun-16 14:00N 39°45' W 074°07'0 0.0
2018-Jun-16 13:25N 39°45' W 074°07'0 0.0
2018-Jun-16 12:55N 39°45' W 074°07'0 0.0
2018-Jun-16 12:24N 39°45' W 074°07'0 0.0
2018-Jun-16 11:57N 39°45' W 074°07'0 0.0
2018-Jun-16 11:23N 39°45' W 074°07'0 0.0
2018-Jun-16 10:52N 39°45' W 074°07'0 0.0
2018-Jun-16 10:30N 39°45' W 074°07'0 0.0
2018-Jun-16 10:00N 39°45' W 074°07'0 0.0
2018-Jun-16 09:30N 39°45' W 074°07'0 0.0
2018-Jun-16 08:56N 39°45' W 074°07'0 0.0
2018-Jun-16 08:26N 39°45' W 074°07'0 0.0
2018-Jun-16 07:59N 39°45' W 074°07'0 0.0
2018-Jun-16 07:30N 39°45' W 074°07'0 0.0
2018-Jun-16 06:59N 39°45' W 074°07'0 0.0
2018-Jun-16 06:27N 39°45' W 074°07'0 0.0
2018-Jun-16 06:00N 39°45' W 074°07'1 1.4
2018-Jun-16 05:28N 39°46' W 074°06'4 6.5
2018-Jun-16 04:54N 39°43' W 074°04'2 5.3
2018-Jun-16 04:27N 39°41' W 074°04'2 4.6
2018-Jun-16 03:56N 39°41' W 074°07'0 0.0
2018-Jun-16 03:29N 39°41' W 074°07'0 0.0
2018-Jun-16 02:55N 39°41' W 074°07'0 0.0
2018-Jun-16 02:30N 39°41' W 074°07'0 0.0
2018-Jun-16 01:58N 39°41' W 074°07'0 0.0
2018-Jun-16 01:23N 39°41' W 074°07'0 0.0
2018-Jun-16 00:59N 39°41' W 074°07'0 0.0
2018-Jun-16 00:30N 39°41' W 074°07'0 0.0
2018-Jun-16 00:00N 39°41' W 074°07'2 3.3
2018-Jun-15 23:22N 39°41' W 074°04'0 0.0
2018-Jun-15 22:57N 39°41' W 074°04'0 0.0
2018-Jun-15 22:29N 39°41' W 074°04'0 0.1
2018-Jun-15 21:57N 39°41' W 074°04'0 0.0
2018-Jun-15 21:30N 39°41' W 074°04'0 0.0
2018-Jun-15 21:00N 39°41' W 074°04'0 0.0
2018-Jun-15 20:30N 39°41' W 074°04'0 0.1
2018-Jun-15 19:47N 39°41' W 074°04'  
Track history (hours):
 
Tides and Currents Weather Stations Pressure Air Temp Water Temp Dewpoint Dewpoint Depression Visibility Wind Speed Wind Dir Waves Ship Positions

Rikki S

Owner: P & L Towing $ Transportation, Inc., Southwest Ranches, FL. More information available from US FCC via Universal Licensing System and Coast Guard Vessel Documentation Center.

Last reported at 2018-Jun-25 19:30 UTC. Time now 2018-Jun-25 19:46 UTC.
Position N 39°41' W 074°06'.

Length 26 m; draft 3 m.

Type: Towing. MMSI: 367136020.

Date/timePositionNaut miles runAvg speedWind from/ knotsBaromVisibWave heightAir tempDewpointWater temp
2018-Jun-25 19:30N 39°41' W 074°06'0 0.1
2018-Jun-25 19:00N 39°41' W 074°06'0 0.5
2018-Jun-25 18:29N 39°41' W 074°06'0 0.1
2018-Jun-25 18:00N 39°41' W 074°06'0 0.4
2018-Jun-25 17:29N 39°41' W 074°06'0 0.1
2018-Jun-25 17:00N 39°41' W 074°06'0 0.8
2018-Jun-25 16:29N 39°41' W 074°05'0 0.2
2018-Jun-25 15:58N 39°41' W 074°06'0 0.4
2018-Jun-25 15:27N 39°41' W 074°06'2 3.5
2018-Jun-25 15:00N 39°40' W 074°04'1 2.1
2018-Jun-25 14:29N 39°41' W 074°05'1 1.6
2018-Jun-25 13:59N 39°41' W 074°04'0 0.0
2018-Jun-25 13:30N 39°41' W 074°04'0 0.0
2018-Jun-25 12:57N 39°41' W 074°04'1 1.3
2018-Jun-25 12:29N 39°41' W 074°04'3 6.0
2018-Jun-25 12:00N 39°44' W 074°04'3 4.5
2018-Jun-25 11:24N 39°46' W 074°06'1 1.4
2018-Jun-25 10:58N 39°46' W 074°07'0 0.0
2018-Jun-25 10:22N 39°46' W 074°07'0 0.0
2018-Jun-25 10:00N 39°46' W 074°07'1 1.6
2018-Jun-25 09:28N 39°45' W 074°07'2 3.4
2018-Jun-25 08:58N 39°47' W 074°07'0 0.0
2018-Jun-25 08:30N 39°47' W 074°07'0 0.0
2018-Jun-25 08:00N 39°47' W 074°07'0 0.0
2018-Jun-25 07:30N 39°47' W 074°07'0 0.0
2018-Jun-25 07:00N 39°47' W 074°07'0 0.0
2018-Jun-25 06:25N 39°47' W 074°07'0 0.0
2018-Jun-25 05:56N 39°47' W 074°07'0 0.0
2018-Jun-25 05:25N 39°47' W 074°07'0 0.0
2018-Jun-25 04:57N 39°47' W 074°07'0 0.0
2018-Jun-25 04:29N 39°47' W 074°07'0 0.0
2018-Jun-25 03:59N 39°47' W 074°07'0 0.0
2018-Jun-25 03:30N 39°47' W 074°07'0 0.0
2018-Jun-25 02:56N 39°47' W 074°07'0 0.0
2018-Jun-25 02:27N 39°47' W 074°07'0 0.0
2018-Jun-25 01:53N 39°47' W 074°07'0 0.0
2018-Jun-25 01:16N 39°47' W 074°07'0 0.0
2018-Jun-25 00:43N 39°47' W 074°07'0 0.0
2018-Jun-25 00:25N 39°47' W 074°07'0 0.0
2018-Jun-24 23:59N 39°47' W 074°07'0 0.0
2018-Jun-24 23:26N 39°47' W 074°07'0 0.0
2018-Jun-24 22:59N 39°47' W 074°07'0 0.0
2018-Jun-24 22:30N 39°47' W 074°07'2 2.6
2018-Jun-24 21:52N 39°45' W 074°07'0 0.0
2018-Jun-24 21:29N 39°45' W 074°07'0 0.0
2018-Jun-24 20:52N 39°45' W 074°07'0 0.0
2018-Jun-24 20:28N 39°45' W 074°07'0 0.5
2018-Jun-24 19:59N 39°45' W 074°07'1 2.7
2018-Jun-24 19:28N 39°47' W 074°07'0 0.0
2018-Jun-24 19:00N 39°47' W 074°07'0 0.0
2018-Jun-24 18:26N 39°47' W 074°07'0 0.1
2018-Jun-24 17:55N 39°47' W 074°07'0 0.1
2018-Jun-24 17:30N 39°47' W 074°07'0 0.0
2018-Jun-24 16:59N 39°47' W 074°07'1 1.7
2018-Jun-24 16:30N 39°46' W 074°07'1 1.5
2018-Jun-24 15:58N 39°47' W 074°07'0 0.0
2018-Jun-24 15:29N 39°47' W 074°07'0 0.0
2018-Jun-24 15:00N 39°47' W 074°07'0 0.0
2018-Jun-24 14:26N 39°47' W 074°07'0 0.0
2018-Jun-24 13:58N 39°47' W 074°07'0 0.0
2018-Jun-24 13:30N 39°47' W 074°07'0 0.0
2018-Jun-24 12:58N 39°47' W 074°07'0 0.0
2018-Jun-24 12:30N 39°47' W 074°07'0 0.0
2018-Jun-24 11:59N 39°47' W 074°07'0 0.0
2018-Jun-24 11:29N 39°47' W 074°07'0 0.0
2018-Jun-24 11:00N 39°47' W 074°07'0 0.0
2018-Jun-24 10:29N 39°47' W 074°07'0 0.0
2018-Jun-24 09:59N 39°47' W 074°07'0 0.0
2018-Jun-24 09:30N 39°47' W 074°07'0 0.0
2018-Jun-24 08:58N 39°47' W 074°07'0 0.0
2018-Jun-24 08:29N 39°47' W 074°07'0 0.0
2018-Jun-24 07:57N 39°47' W 074°07'0 0.0
2018-Jun-24 07:28N 39°47' W 074°07'0 0.0
2018-Jun-24 06:59N 39°47' W 074°07'0 0.0
2018-Jun-24 06:28N 39°47' W 074°07'0 0.0
2018-Jun-24 05:57N 39°47' W 074°07'0 0.0
2018-Jun-24 05:29N 39°47' W 074°07'0 0.0
2018-Jun-24 04:55N 39°47' W 074°07'0 0.0
2018-Jun-24 04:28N 39°47' W 074°07'0 0.0
2018-Jun-24 03:56N 39°47' W 074°07'0 0.0
2018-Jun-24 03:23N 39°47' W 074°07'0 0.0
2018-Jun-24 02:59N 39°47' W 074°07'0 0.0
2018-Jun-24 02:29N 39°47' W 074°07'0 0.0
2018-Jun-24 01:37N 39°47' W 074°07'0 0.0
2018-Jun-24 01:11N 39°47' W 074°07'0 0.0
2018-Jun-24 00:59N 39°47' W 074°07'0 0.0
2018-Jun-24 00:25N 39°47' W 074°07'0 0.0
2018-Jun-23 23:59N 39°47' W 074°07'0 0.0
2018-Jun-23 23:24N 39°47' W 074°07'0 0.0
2018-Jun-23 22:58N 39°47' W 074°07'0 0.0
2018-Jun-23 22:27N 39°47' W 074°07'0 0.0
2018-Jun-23 21:59N 39°47' W 074°07'0 0.0
2018-Jun-23 21:30N 39°47' W 074°07'0 0.8
2018-Jun-23 20:58N 39°46' W 074°07'1 1.2
2018-Jun-23 20:28N 39°46' W 074°07'1 2.3
2018-Jun-23 20:00N 39°47' W 074°07'0 0.0
2018-Jun-23 19:29N 39°47' W 074°07'0 0.0
2018-Jun-23 18:57N 39°47' W 074°07'0 0.0
2018-Jun-23 18:29N 39°47' W 074°07'0 0.0
2018-Jun-23 17:58N 39°47' W 074°07'0 0.0
2018-Jun-23 17:29N 39°47' W 074°07'0 0.0
2018-Jun-23 17:00N 39°47' W 074°07'1 1.5
2018-Jun-23 16:30N 39°46' W 074°07'0 0.8
2018-Jun-23 15:59N 39°46' W 074°07'0 0.0
2018-Jun-23 15:26N 39°46' W 074°07'1 1.4
2018-Jun-23 14:59N 39°46' W 074°07'1 1.2
2018-Jun-23 14:30N 39°47' W 074°07'0 0.0
2018-Jun-23 14:00N 39°47' W 074°07'0 0.0
2018-Jun-23 13:30N 39°47' W 074°07'0 0.0
2018-Jun-23 13:00N 39°47' W 074°07'0 0.0
2018-Jun-23 12:30N 39°47' W 074°07'0 0.1
2018-Jun-23 11:59N 39°47' W 074°07'1 2.5
2018-Jun-23 11:29N 39°46' W 074°07'0 0.8
2018-Jun-23 10:55N 39°45' W 074°07'0 0.0
2018-Jun-23 10:29N 39°45' W 074°07'0 0.0
2018-Jun-23 09:59N 39°45' W 074°07'2 3.1
2018-Jun-23 09:30N 39°47' W 074°07'0 0.3
2018-Jun-23 08:59N 39°47' W 074°07'0 0.0
2018-Jun-23 08:30N 39°47' W 074°07'0 0.0
2018-Jun-23 07:48N 39°47' W 074°07'0 0.0
2018-Jun-23 07:30N 39°47' W 074°07'0 0.0
2018-Jun-23 06:58N 39°47' W 074°07'0 0.0
2018-Jun-23 06:18N 39°47' W 074°07'0 0.0
2018-Jun-23 05:58N 39°47' W 074°07'0 0.0
2018-Jun-23 05:29N 39°47' W 074°07'0 0.0
2018-Jun-23 04:53N 39°47' W 074°07'0 0.0
2018-Jun-23 04:20N 39°47' W 074°07'0 0.0
2018-Jun-23 03:55N 39°47' W 074°07'0 0.0
2018-Jun-23 03:27N 39°47' W 074°07'0 0.0
2018-Jun-23 03:00N 39°47' W 074°07'0 0.0
2018-Jun-23 02:22N 39°47' W 074°07'0 0.0
2018-Jun-23 02:00N 39°47' W 074°07'0 0.0
2018-Jun-23 01:17N 39°47' W 074°07'0 0.0
2018-Jun-23 00:47N 39°47' W 074°07'0 0.0
2018-Jun-23 00:28N 39°47' W 074°07'0 0.0
2018-Jun-22 23:57N 39°47' W 074°07'0 0.0
2018-Jun-22 23:22N 39°47' W 074°07'0 0.0
2018-Jun-22 22:55N 39°47' W 074°07'0 0.0
2018-Jun-22 22:29N 39°47' W 074°07'0 0.0
2018-Jun-22 21:58N 39°47' W 074°07'0 0.0
2018-Jun-22 21:30N 39°47' W 074°07'1 1.8
2018-Jun-22 21:00N 39°46' W 074°07'1 1.5
2018-Jun-22 20:28N 39°45' W 074°07'0 0.0
2018-Jun-22 20:00N 39°45' W 074°07'0 0.0
2018-Jun-22 19:30N 39°45' W 074°07'0 0.0
2018-Jun-22 18:54N 39°45' W 074°07'0 0.0
2018-Jun-22 18:30N 39°45' W 074°07'0 0.0
2018-Jun-22 18:00N 39°45' W 074°07'0 0.0
2018-Jun-22 17:30N 39°45' W 074°07'0 0.0
2018-Jun-22 16:59N 39°45' W 074°07'0 0.1
2018-Jun-22 16:30N 39°45' W 074°07'0 0.1
2018-Jun-22 15:56N 39°45' W 074°07'0 0.1
2018-Jun-22 15:30N 39°45' W 074°07'0 0.1
2018-Jun-22 14:59N 39°45' W 074°07'0 0.0
2018-Jun-22 14:30N 39°45' W 074°07'0 0.0
2018-Jun-22 13:59N 39°45' W 074°07'0 0.0
2018-Jun-22 13:28N 39°45' W 074°07'0 0.0
2018-Jun-22 12:57N 39°45' W 074°07'0 0.0
2018-Jun-22 12:26N 39°45' W 074°07'0 0.0
2018-Jun-22 11:59N 39°45' W 074°07'0 0.0
2018-Jun-22 11:29N 39°45' W 074°07'0 0.0
2018-Jun-22 11:00N 39°45' W 074°07'0 0.0
2018-Jun-22 10:30N 39°45' W 074°07'0 0.0
2018-Jun-22 10:00N 39°45' W 074°07'0 0.0
2018-Jun-22 09:30N 39°45' W 074°07'0 0.0
2018-Jun-22 08:59N 39°45' W 074°07'0 0.0
2018-Jun-22 08:30N 39°45' W 074°07'0 0.0
2018-Jun-22 08:00N 39°45' W 074°07'0 0.0
2018-Jun-22 07:29N 39°45' W 074°07'0 0.0
2018-Jun-22 07:00N 39°45' W 074°07'0 0.0
2018-Jun-22 06:28N 39°45' W 074°07'0 0.0
2018-Jun-22 06:00N 39°45' W 074°07'0 0.0
2018-Jun-22 05:29N 39°45' W 074°07'0 0.0
2018-Jun-22 05:00N 39°45' W 074°07'0 0.0
2018-Jun-22 04:30N 39°45' W 074°07'0 0.0
2018-Jun-22 04:00N 39°45' W 074°07'0 0.0
2018-Jun-22 03:29N 39°45' W 074°07'2 3.5
2018-Jun-22 03:00N 39°47' W 074°07'0 0.0
2018-Jun-22 02:28N 39°47' W 074°07'0 0.0
2018-Jun-22 01:59N 39°47' W 074°07'0 0.0
2018-Jun-22 01:28N 39°47' W 074°07'0 0.0
2018-Jun-22 00:59N 39°47' W 074°07'0 0.0
2018-Jun-22 00:30N 39°47' W 074°07'1 1.6
2018-Jun-22 00:00N 39°46' W 074°07'1 1.9
2018-Jun-21 23:30N 39°45' W 074°07'0 0.0
2018-Jun-21 23:00N 39°45' W 074°07'0 0.0
2018-Jun-21 22:30N 39°45' W 074°07'0 0.0
2018-Jun-21 22:00N 39°45' W 074°07'0 0.0
2018-Jun-21 21:30N 39°45' W 074°07'0 0.0
2018-Jun-21 20:55N 39°45' W 074°07'0 0.0
2018-Jun-21 20:30N 39°45' W 074°07'0 0.0
2018-Jun-21 19:57N 39°45' W 074°07'0 0.0
2018-Jun-21 19:29N 39°45' W 074°07'0 0.0
2018-Jun-21 18:57N 39°45' W 074°07'0 0.0
2018-Jun-21 18:29N 39°45' W 074°07'0 0.0
2018-Jun-21 18:00N 39°45' W 074°07'0 0.0
2018-Jun-21 17:30N 39°45' W 074°07'0 0.0
2018-Jun-21 16:47N 39°45' W 074°07'1 3.1
2018-Jun-21 16:26N 39°46' W 074°06'2 3.9
2018-Jun-21 16:00N 39°44' W 074°05'2 4.0
2018-Jun-21 15:30N 39°42' W 074°05'2 3.7
2018-Jun-21 15:00N 39°41' W 074°04'0 0.1
2018-Jun-21 14:29N 39°41' W 074°04'0 0.9
2018-Jun-21 13:58N 39°40' W 074°03'2 4.2
2018-Jun-21 13:30N 39°42' W 074°05'1 2.0
2018-Jun-21 13:00N 39°41' W 074°06'0 0.5
2018-Jun-21 12:28N 39°41' W 074°06'0 0.3
2018-Jun-21 12:00N 39°41' W 074°06'0 0.8
2018-Jun-21 11:30N 39°41' W 074°05'1 1.8
2018-Jun-21 10:58N 39°41' W 074°04'0 0.6
2018-Jun-21 10:30N 39°41' W 074°04'0 0.7
2018-Jun-21 09:59N 39°41' W 074°03'0 0.0
2018-Jun-21 09:29N 39°41' W 074°03'0 0.0
2018-Jun-21 09:00N 39°41' W 074°03'0 0.0
2018-Jun-21 08:24N 39°41' W 074°03'0 0.0
2018-Jun-21 07:59N 39°41' W 074°03'0 0.0
2018-Jun-21 07:30N 39°41' W 074°03'0 0.0
2018-Jun-21 07:00N 39°41' W 074°03'0 0.0
2018-Jun-21 06:26N 39°41' W 074°03'0 0.1
2018-Jun-21 05:59N 39°41' W 074°03'0 0.0
2018-Jun-21 05:28N 39°41' W 074°03'0 0.0
2018-Jun-21 04:59N 39°41' W 074°03'0 0.0
2018-Jun-21 04:26N 39°41' W 074°03'0 1.0
2018-Jun-21 03:58N 39°41' W 074°03'3 7.2
2018-Jun-21 03:30N 39°44' W 074°04'2 4.8
2018-Jun-21 03:00N 39°46' W 074°07'0 0.8
2018-Jun-21 02:28N 39°45' W 074°07'0 0.0
2018-Jun-21 01:59N 39°45' W 074°07'0 0.0
2018-Jun-21 01:23N 39°45' W 074°07'0 0.0
2018-Jun-21 00:56N 39°45' W 074°07'0 0.0
2018-Jun-21 00:28N 39°45' W 074°07'0 0.0
2018-Jun-20 23:59N 39°45' W 074°07'0 0.0
2018-Jun-20 23:29N 39°45' W 074°07'1 2.5
2018-Jun-20 22:56N 39°45' W 074°05'4 9.6
2018-Jun-20 22:30N 39°41' W 074°04'0 1.0
2018-Jun-20 22:00N 39°41' W 074°04'0 0.4
2018-Jun-20 21:30N 39°41' W 074°04'0 0.3
2018-Jun-20 20:57N 39°41' W 074°04'0 0.7
2018-Jun-20 20:29N 39°40' W 074°04'1 1.6
2018-Jun-20 20:00N 39°40' W 074°05'1 1.3
2018-Jun-20 19:30N 39°41' W 074°06'0 0.1
2018-Jun-20 18:58N 39°41' W 074°06'0 0.0
2018-Jun-20 18:30N 39°41' W 074°06'0 0.2
2018-Jun-20 18:00N 39°41' W 074°06'0 0.3
2018-Jun-20 17:30N 39°41' W 074°06'0 0.1
2018-Jun-20 16:57N 39°41' W 074°06'0 0.0
2018-Jun-20 16:30N 39°41' W 074°06'0 0.0
2018-Jun-20 15:58N 39°41' W 074°06'0 0.0
2018-Jun-20 15:30N 39°41' W 074°06'0 0.3
2018-Jun-20 14:59N 39°41' W 074°06'0 0.1
2018-Jun-20 14:30N 39°41' W 074°06'0 0.1
2018-Jun-20 14:00N 39°41' W 074°06'0 0.2
2018-Jun-20 13:28N 39°41' W 074°06'0 0.1
2018-Jun-20 12:58N 39°41' W 074°06'0 0.4
2018-Jun-20 12:30N 39°41' W 074°06'2 3.1
2018-Jun-20 12:00N 39°40' W 074°04'1 0.9
2018-Jun-20 11:26N 39°41' W 074°03'0 0.2
2018-Jun-20 10:56N 39°41' W 074°03'0 0.6
2018-Jun-20 10:30N 39°41' W 074°03'0 0.4
2018-Jun-20 09:57N 39°41' W 074°04'0 0.5
2018-Jun-20 09:30N 39°40' W 074°04'0 0.1
2018-Jun-20 08:59N 39°40' W 074°04'0 0.0
2018-Jun-20 08:30N 39°40' W 074°04'0 0.7
2018-Jun-20 07:58N 39°40' W 074°04'0 0.5
2018-Jun-20 07:28N 39°41' W 074°04'0 0.5
2018-Jun-20 07:00N 39°40' W 074°04'0 0.0
2018-Jun-20 06:27N 39°40' W 074°04'0 0.0
2018-Jun-20 05:57N 39°40' W 074°04'0 0.0
2018-Jun-20 05:24N 39°40' W 074°04'0 0.1
2018-Jun-20 04:59N 39°40' W 074°04'0 0.1
2018-Jun-20 04:30N 39°41' W 074°04'0 0.0
2018-Jun-20 04:00N 39°41' W 074°04'0 0.0
2018-Jun-20 03:30N 39°41' W 074°04'0 0.0
2018-Jun-20 02:50N 39°41' W 074°04'0 0.0
2018-Jun-20 02:30N 39°41' W 074°04'0 0.0
2018-Jun-20 02:00N 39°41' W 074°04'0 0.0
2018-Jun-20 01:30N 39°41' W 074°04'0 0.0
2018-Jun-20 00:58N 39°41' W 074°04'0 0.0
2018-Jun-20 00:30N 39°41' W 074°04'0 0.0
2018-Jun-20 00:00N 39°41' W 074°04'0 0.0
2018-Jun-19 23:30N 39°41' W 074°04'0 0.0
2018-Jun-19 23:00N 39°41' W 074°04'0 0.0
2018-Jun-19 22:30N 39°41' W 074°04'0 0.0
2018-Jun-19 21:58N 39°41' W 074°04'0 0.9
2018-Jun-19 21:30N 39°41' W 074°04'2 3.5
2018-Jun-19 20:58N 39°41' W 074°07'2 5.0
2018-Jun-19 20:30N 39°40' W 074°04'0 0.0
2018-Jun-19 20:00N 39°40' W 074°04'0 0.0
2018-Jun-19 19:30N 39°40' W 074°04'0 0.1
2018-Jun-19 19:00N 39°41' W 074°04'1 2.4
2018-Jun-19 18:27N 39°42' W 074°04'4 8.1
2018-Jun-19 18:00N 39°45' W 074°05'2 3.6
2018-Jun-19 17:28N 39°46' W 074°07'0 0.1
2018-Jun-19 17:00N 39°46' W 074°07'0 0.1
2018-Jun-19 16:27N 39°46' W 074°07'0 0.0
2018-Jun-19 15:58N 39°46' W 074°07'0 0.2
2018-Jun-19 15:30N 39°46' W 074°07'0 0.1
2018-Jun-19 14:58N 39°46' W 074°07'1 2.4
2018-Jun-19 14:30N 39°46' W 074°06'2 4.2
2018-Jun-19 13:55N 39°43' W 074°06'2 4.3
2018-Jun-19 13:25N 39°41' W 074°06'2 5.2
2018-Jun-19 12:58N 39°42' W 074°03'3 5.7
2018-Jun-19 12:30N 39°44' W 074°04'3 5.4
2018-Jun-19 11:58N 39°46' W 074°07'1 1.9
2018-Jun-19 11:30N 39°47' W 074°07'0 0.1
2018-Jun-19 11:00N 39°47' W 074°07'2 4.6
2018-Jun-19 10:27N 39°45' W 074°05'4 8.0
2018-Jun-19 10:00N 39°42' W 074°04'1 1.2
2018-Jun-19 09:08N 39°40' W 074°04'0 0.0
2018-Jun-19 08:54N 39°40' W 074°04'0 0.0
2018-Jun-19 08:28N 39°40' W 074°04'0 0.0
2018-Jun-19 07:48N 39°40' W 074°04'0 0.0
2018-Jun-19 07:30N 39°40' W 074°04'0 0.0
2018-Jun-19 06:54N 39°40' W 074°04'0 0.0
2018-Jun-19 06:30N 39°40' W 074°04'0 0.0
2018-Jun-19 06:00N 39°40' W 074°04'0 0.0
2018-Jun-19 05:29N 39°40' W 074°04'0 0.0
2018-Jun-19 04:57N 39°40' W 074°04'0 0.0
2018-Jun-19 04:29N 39°40' W 074°04'0 0.0
2018-Jun-19 03:58N 39°40' W 074°04'0 0.0
2018-Jun-19 03:12N 39°40' W 074°04'0 0.0
2018-Jun-19 02:18N 39°40' W 074°04'0 0.0
2018-Jun-19 01:51N 39°40' W 074°04'0 0.0
2018-Jun-19 01:30N 39°40' W 074°04'0 0.0
2018-Jun-19 00:57N 39°40' W 074°04'0 0.0
2018-Jun-19 00:28N 39°40' W 074°04'0 0.0
2018-Jun-19 00:00N 39°40' W 074°04'0 0.0
2018-Jun-18 23:28N 39°40' W 074°04'0 0.0
2018-Jun-18 22:56N 39°40' W 074°04'0 0.0
2018-Jun-18 22:30N 39°40' W 074°04'0 0.0
2018-Jun-18 22:00N 39°40' W 074°04'0 0.0
2018-Jun-18 21:30N 39°40' W 074°04'0 0.0
2018-Jun-18 20:59N 39°40' W 074°04'0 0.0
2018-Jun-18 20:28N 39°40' W 074°04'0 0.0
2018-Jun-18 19:59N 39°40' W 074°04'0 0.0
2018-Jun-18 19:26N 39°40' W 074°04'0 0.0
2018-Jun-18 19:00N 39°40' W 074°04'0 0.1
2018-Jun-18 18:27N 39°41' W 074°04'1 2.8
2018-Jun-18 17:57N 39°41' W 074°06'1 2.7
2018-Jun-18 17:26N 39°41' W 074°04'0 0.0
2018-Jun-18 16:53N 39°41' W 074°04'0 0.1
2018-Jun-18 16:20N 39°41' W 074°04'0 1.0
2018-Jun-18 15:59N 39°41' W 074°03'0 0.2
2018-Jun-18 15:28N 39°41' W 074°03'2 3.6
2018-Jun-18 14:59N 39°41' W 074°05'1 1.0
2018-Jun-18 14:25N 39°41' W 074°06'0 0.4
2018-Jun-18 13:59N 39°41' W 074°06'0 0.0
2018-Jun-18 13:29N 39°41' W 074°06'0 0.1
2018-Jun-18 13:00N 39°41' W 074°06'1 1.5
2018-Jun-18 12:30N 39°41' W 074°07'0 0.3
2018-Jun-18 11:59N 39°41' W 074°07'3 4.3
2018-Jun-18 11:21N 39°41' W 074°03'0 0.2
2018-Jun-18 11:00N 39°41' W 074°03'0 0.1
2018-Jun-18 10:30N 39°41' W 074°03'0 0.0
2018-Jun-18 09:57N 39°41' W 074°03'0 0.0
2018-Jun-18 09:30N 39°41' W 074°03'0 0.0
2018-Jun-18 08:56N 39°41' W 074°03'0 0.0
2018-Jun-18 08:27N 39°41' W 074°03'0 0.0
2018-Jun-18 07:57N 39°41' W 074°03'0 0.0
2018-Jun-18 07:27N 39°41' W 074°03'0 0.0
2018-Jun-18 07:01N 39°41' W 074°03'0 0.0
2018-Jun-18 06:18N 39°41' W 074°03'0 0.0
2018-Jun-18 06:00N 39°41' W 074°03'0 0.0
2018-Jun-18 05:28N 39°41' W 074°03'0 0.0
2018-Jun-18 04:34N 39°41' W 074°03'0 0.0
2018-Jun-18 04:29N 39°41' W 074°03'0 0.0
2018-Jun-18 03:57N 39°41' W 074°03'0 0.0
2018-Jun-18 03:19N 39°41' W 074°03'0 0.0
2018-Jun-18 02:57N 39°41' W 074°03'0 0.0
2018-Jun-18 02:22N 39°41' W 074°03'0 0.0
2018-Jun-18 01:51N 39°41' W 074°03'0 0.0
2018-Jun-18 01:12N 39°41' W 074°03'0 0.0
2018-Jun-18 01:00N 39°41' W 074°03'0 0.0
2018-Jun-18 00:30N 39°41' W 074°03'0 0.0
2018-Jun-17 23:58N 39°41' W 074°03'0 0.0
2018-Jun-17 23:20N 39°41' W 074°03'0 0.0
2018-Jun-17 22:48N 39°41' W 074°03'0 0.0
2018-Jun-17 22:27N 39°41' W 074°03'0 0.0
2018-Jun-17 22:00N 39°41' W 074°03'1 2.3
2018-Jun-17 21:30N 39°41' W 074°05'1 1.4
2018-Jun-17 20:59N 39°41' W 074°05'0 0.8
2018-Jun-17 20:30N 39°41' W 074°06'0 0.4
2018-Jun-17 19:57N 39°41' W 074°06'0 0.8
2018-Jun-17 19:29N 39°41' W 074°06'0 0.1
2018-Jun-17 19:00N 39°41' W 074°06'0 0.1
2018-Jun-17 18:29N 39°41' W 074°06'0 0.1
2018-Jun-17 17:59N 39°41' W 074°06'0 0.1
2018-Jun-17 17:29N 39°41' W 074°06'1 1.1
2018-Jun-17 17:00N 39°41' W 074°06'0 0.1
2018-Jun-17 16:30N 39°41' W 074°06'0 0.6
2018-Jun-17 16:00N 39°41' W 074°06'0 0.3
2018-Jun-17 15:29N 39°41' W 074°06'0 0.3
2018-Jun-17 15:00N 39°41' W 074°06'0 0.1
2018-Jun-17 14:30N 39°41' W 074°06'0 0.2
2018-Jun-17 14:00N 39°41' W 074°07'0 0.0
2018-Jun-17 13:30N 39°41' W 074°07'0 0.2
2018-Jun-17 13:00N 39°41' W 074°07'0 0.4
2018-Jun-17 12:28N 39°41' W 074°07'0 0.0
2018-Jun-17 11:59N 39°41' W 074°07'0 0.9
2018-Jun-17 11:27N 39°41' W 074°06'2 4.7
2018-Jun-17 10:59N 39°41' W 074°03'0 0.1
2018-Jun-17 10:27N 39°41' W 074°03'0 0.9
2018-Jun-17 09:59N 39°41' W 074°03'2 3.9
2018-Jun-17 09:30N 39°43' W 074°03'4 7.1
2018-Jun-17 08:57N 39°46' W 074°07'1 1.4
2018-Jun-17 08:29N 39°45' W 074°07'0 0.0
2018-Jun-17 07:58N 39°45' W 074°07'0 0.0
2018-Jun-17 07:29N 39°45' W 074°07'0 0.0
2018-Jun-17 06:58N 39°45' W 074°07'0 0.0
2018-Jun-17 06:29N 39°45' W 074°07'0 0.0
2018-Jun-17 05:58N 39°45' W 074°07'0 0.0
2018-Jun-17 05:30N 39°45' W 074°07'0 0.0
2018-Jun-17 05:00N 39°45' W 074°07'0 0.0
2018-Jun-17 04:23N 39°45' W 074°07'0 0.0
2018-Jun-17 03:58N 39°45' W 074°07'0 0.0
2018-Jun-17 03:30N 39°45' W 074°07'0 0.0
2018-Jun-17 03:00N 39°45' W 074°07'0 0.0
2018-Jun-17 02:17N 39°45' W 074°07'0 0.0
2018-Jun-17 01:21N 39°45' W 074°07'0 0.0
2018-Jun-17 00:53N 39°45' W 074°07'0 0.0
2018-Jun-17 00:27N 39°45' W 074°07'0 0.0
2018-Jun-17 00:00N 39°45' W 074°07'1 1.0
2018-Jun-16 23:29N 39°46' W 074°07'3 6.6
2018-Jun-16 23:00N 39°43' W 074°04'3 5.3
2018-Jun-16 22:29N 39°41' W 074°03'2 4.4
2018-Jun-16 22:00N 39°41' W 074°06'1 1.3
2018-Jun-16 21:30N 39°41' W 074°07'0 0.1
2018-Jun-16 21:00N 39°41' W 074°07'0 0.3
2018-Jun-16 20:30N 39°41' W 074°07'0 0.2
2018-Jun-16 20:00N 39°41' W 074°07'1 1.8
2018-Jun-16 19:29N 39°40' W 074°06'0 0.9
2018-Jun-16 18:59N 39°40' W 074°05'1 1.2
2018-Jun-16 18:30N 39°40' W 074°04'0 0.8
2018-Jun-16 18:00N 39°40' W 074°04'0 0.2
2018-Jun-16 17:28N 39°40' W 074°04'1 1.8
2018-Jun-16 16:58N 39°41' W 074°05'1 1.7
2018-Jun-16 16:24N 39°41' W 074°04'0 0.3
2018-Jun-16 15:59N 39°41' W 074°04'4 9.1
2018-Jun-16 15:30N 39°45' W 074°05'1 2.6
2018-Jun-16 14:56N 39°45' W 074°07'0 0.0
2018-Jun-16 14:30N 39°45' W 074°07'0 0.0
2018-Jun-16 14:00N 39°45' W 074°07'0 0.0
2018-Jun-16 13:25N 39°45' W 074°07'0 0.0
2018-Jun-16 12:55N 39°45' W 074°07'0 0.0
2018-Jun-16 12:24N 39°45' W 074°07'0 0.0
2018-Jun-16 11:57N 39°45' W 074°07'0 0.0
2018-Jun-16 11:23N 39°45' W 074°07'0 0.0
2018-Jun-16 10:52N 39°45' W 074°07'0 0.0
2018-Jun-16 10:30N 39°45' W 074°07'0 0.0
2018-Jun-16 10:00N 39°45' W 074°07'0 0.0
2018-Jun-16 09:30N 39°45' W 074°07'0 0.0
2018-Jun-16 08:56N 39°45' W 074°07'0 0.0
2018-Jun-16 08:26N 39°45' W 074°07'0 0.0
2018-Jun-16 07:59N 39°45' W 074°07'0 0.0
2018-Jun-16 07:30N 39°45' W 074°07'0 0.0
2018-Jun-16 06:59N 39°45' W 074°07'0 0.0
2018-Jun-16 06:27N 39°45' W 074°07'0 0.0
2018-Jun-16 06:00N 39°45' W 074°07'1 1.4
2018-Jun-16 05:28N 39°46' W 074°06'4 6.5
2018-Jun-16 04:54N 39°43' W 074°04'2 5.3
2018-Jun-16 04:27N 39°41' W 074°04'2 4.6
2018-Jun-16 03:56N 39°41' W 074°07'0 0.0
2018-Jun-16 03:29N 39°41' W 074°07'0 0.0
2018-Jun-16 02:55N 39°41' W 074°07'0 0.0
2018-Jun-16 02:30N 39°41' W 074°07'0 0.0
2018-Jun-16 01:58N 39°41' W 074°07'0 0.0
2018-Jun-16 01:23N 39°41' W 074°07'0 0.0
2018-Jun-16 00:59N 39°41' W 074°07'0 0.0
2018-Jun-16 00:30N 39°41' W 074°07'0 0.0
2018-Jun-16 00:00N 39°41' W 074°07'2 3.3
2018-Jun-15 23:22N 39°41' W 074°04'0 0.0
2018-Jun-15 22:57N 39°41' W 074°04'0 0.0
2018-Jun-15 22:29N 39°41' W 074°04'0 0.1
2018-Jun-15 21:57N 39°41' W 074°04'0 0.0
2018-Jun-15 21:30N 39°41' W 074°04'0 0.0
2018-Jun-15 21:00N 39°41' W 074°04'0 0.0
2018-Jun-15 20:30N 39°41' W 074°04'0 0.1
2018-Jun-15 19:47N 39°41' W 074°04'  

Dump ship's entire track history